sensor_id;sensor_type;location;lat;lon;timestamp;temperature;humidity
35497;DHT22;21609;49.298;6.844;2024-01-06T00:00:47;17.80;52.50
35497;DHT22;21609;49.298;6.844;2024-01-06T00:03:14;17.80;52.60
35497;DHT22;21609;49.298;6.844;2024-01-06T00:05:40;17.80;52.60
35497;DHT22;21609;49.298;6.844;2024-01-06T00:08:05;17.70;52.50
35497;DHT22;21609;49.298;6.844;2024-01-06T00:10:31;17.70;52.60
35497;DHT22;21609;49.298;6.844;2024-01-06T00:12:57;17.70;52.60
35497;DHT22;21609;49.298;6.844;2024-01-06T00:15:23;17.70;52.60
35497;DHT22;21609;49.298;6.844;2024-01-06T00:17:49;17.70;52.60
35497;DHT22;21609;49.298;6.844;2024-01-06T00:20:14;17.70;52.60
35497;DHT22;21609;49.298;6.844;2024-01-06T00:22:40;17.60;53.00
35497;DHT22;21609;49.298;6.844;2024-01-06T00:25:08;17.60;52.60
35497;DHT22;21609;49.298;6.844;2024-01-06T00:27:33;17.60;52.60
35497;DHT22;21609;49.298;6.844;2024-01-06T00:29:59;17.60;52.60
35497;DHT22;21609;49.298;6.844;2024-01-06T00:32:24;17.60;52.60
35497;DHT22;21609;49.298;6.844;2024-01-06T00:34:50;17.60;52.60
35497;DHT22;21609;49.298;6.844;2024-01-06T00:37:15;17.60;52.70
35497;DHT22;21609;49.298;6.844;2024-01-06T00:39:41;17.60;52.70
35497;DHT22;21609;49.298;6.844;2024-01-06T00:42:06;17.60;52.70
35497;DHT22;21609;49.298;6.844;2024-01-06T00:44:33;17.50;52.70
35497;DHT22;21609;49.298;6.844;2024-01-06T00:46:59;17.50;52.60
35497;DHT22;21609;49.298;6.844;2024-01-06T00:49:24;17.50;52.70
35497;DHT22;21609;49.298;6.844;2024-01-06T00:51:50;17.50;52.70
35497;DHT22;21609;49.298;6.844;2024-01-06T00:54:16;17.50;52.70
35497;DHT22;21609;49.298;6.844;2024-01-06T00:56:41;17.50;52.70
35497;DHT22;21609;49.298;6.844;2024-01-06T00:59:08;17.50;52.80
35497;DHT22;21609;49.298;6.844;2024-01-06T01:01:33;17.50;52.80
35497;DHT22;21609;49.298;6.844;2024-01-06T01:03:59;17.40;52.70
35497;DHT22;21609;49.298;6.844;2024-01-06T01:06:25;17.50;52.80
35497;DHT22;21609;49.298;6.844;2024-01-06T01:08:50;17.40;52.70
35497;DHT22;21609;49.298;6.844;2024-01-06T01:11:16;17.40;52.70
35497;DHT22;21609;49.298;6.844;2024-01-06T01:13:41;17.40;52.70
35497;DHT22;21609;49.298;6.844;2024-01-06T01:16:07;17.40;52.80
35497;DHT22;21609;49.298;6.844;2024-01-06T01:18:32;17.40;52.80
35497;DHT22;21609;49.298;6.844;2024-01-06T01:20:58;17.40;52.80
35497;DHT22;21609;49.298;6.844;2024-01-06T01:23:23;17.40;52.80
35497;DHT22;21609;49.298;6.844;2024-01-06T01:25:49;17.40;52.80
35497;DHT22;21609;49.298;6.844;2024-01-06T01:28:15;17.30;52.70
35497;DHT22;21609;49.298;6.844;2024-01-06T01:30:40;17.40;52.80
35497;DHT22;21609;49.298;6.844;2024-01-06T01:33:06;17.30;52.80
35497;DHT22;21609;49.298;6.844;2024-01-06T01:35:31;17.30;52.80
35497;DHT22;21609;49.298;6.844;2024-01-06T01:37:57;17.30;52.80
35497;DHT22;21609;49.298;6.844;2024-01-06T01:40:22;17.30;52.80
35497;DHT22;21609;49.298;6.844;2024-01-06T01:42:48;17.30;52.80
35497;DHT22;21609;49.298;6.844;2024-01-06T01:45:13;17.30;52.80
35497;DHT22;21609;49.298;6.844;2024-01-06T01:47:39;17.30;52.80
35497;DHT22;21609;49.298;6.844;2024-01-06T01:50:07;17.30;52.80
35497;DHT22;21609;49.298;6.844;2024-01-06T01:52:32;17.20;52.80
35497;DHT22;21609;49.298;6.844;2024-01-06T01:54:59;17.20;52.80
35497;DHT22;21609;49.298;6.844;2024-01-06T01:57:25;17.20;52.80
35497;DHT22;21609;49.298;6.844;2024-01-06T01:59:52;17.20;52.80
35497;DHT22;21609;49.298;6.844;2024-01-06T02:02:18;17.20;52.90
35497;DHT22;21609;49.298;6.844;2024-01-06T02:04:45;17.20;52.80
35497;DHT22;21609;49.298;6.844;2024-01-06T02:07:10;17.20;52.90
35497;DHT22;21609;49.298;6.844;2024-01-06T02:09:36;17.20;52.90
35497;DHT22;21609;49.298;6.844;2024-01-06T02:12:02;17.20;52.90
35497;DHT22;21609;49.298;6.844;2024-01-06T02:14:28;17.20;52.90
35497;DHT22;21609;49.298;6.844;2024-01-06T02:16:53;17.10;52.80
35497;DHT22;21609;49.298;6.844;2024-01-06T02:19:19;17.10;52.90
35497;DHT22;21609;49.298;6.844;2024-01-06T02:21:48;17.10;52.90
35497;DHT22;21609;49.298;6.844;2024-01-06T02:24:14;17.10;52.90
35497;DHT22;21609;49.298;6.844;2024-01-06T02:26:39;17.10;53.00
35497;DHT22;21609;49.298;6.844;2024-01-06T02:29:05;17.10;53.00
35497;DHT22;21609;49.298;6.844;2024-01-06T02:31:30;17.10;52.90
35497;DHT22;21609;49.298;6.844;2024-01-06T02:33:56;17.10;52.90
35497;DHT22;21609;49.298;6.844;2024-01-06T02:36:22;17.10;52.90
35497;DHT22;21609;49.298;6.844;2024-01-06T02:38:47;17.00;52.90
35497;DHT22;21609;49.298;6.844;2024-01-06T02:41:13;17.00;52.90
35497;DHT22;21609;49.298;6.844;2024-01-06T02:43:38;17.00;53.00
35497;DHT22;21609;49.298;6.844;2024-01-06T02:46:04;17.00;53.00
35497;DHT22;21609;49.298;6.844;2024-01-06T02:48:29;17.00;53.00
35497;DHT22;21609;49.298;6.844;2024-01-06T02:50:56;17.00;53.00
35497;DHT22;21609;49.298;6.844;2024-01-06T02:53:21;17.00;53.00
35497;DHT22;21609;49.298;6.844;2024-01-06T02:55:47;17.00;53.00
35497;DHT22;21609;49.298;6.844;2024-01-06T02:58:13;16.90;53.00
35497;DHT22;21609;49.298;6.844;2024-01-06T03:00:38;16.90;53.00
35497;DHT22;21609;49.298;6.844;2024-01-06T03:03:04;16.90;53.00
35497;DHT22;21609;49.298;6.844;2024-01-06T03:05:29;16.90;53.00
35497;DHT22;21609;49.298;6.844;2024-01-06T03:07:55;16.90;53.00
35497;DHT22;21609;49.298;6.844;2024-01-06T03:10:20;16.90;53.00
35497;DHT22;21609;49.298;6.844;2024-01-06T03:12:46;16.90;53.10
35497;DHT22;21609;49.298;6.844;2024-01-06T03:15:12;16.90;53.10
35497;DHT22;21609;49.298;6.844;2024-01-06T03:17:37;16.90;53.10
35497;DHT22;21609;49.298;6.844;2024-01-06T03:20:03;16.90;53.10
35497;DHT22;21609;49.298;6.844;2024-01-06T03:22:29;16.90;53.10
35497;DHT22;21609;49.298;6.844;2024-01-06T03:24:55;16.90;53.10
35497;DHT22;21609;49.298;6.844;2024-01-06T03:27:20;16.80;53.00
35497;DHT22;21609;49.298;6.844;2024-01-06T03:29:48;16.80;53.10
35497;DHT22;21609;49.298;6.844;2024-01-06T03:32:14;16.80;53.10
35497;DHT22;21609;49.298;6.844;2024-01-06T03:34:41;16.80;53.10
35497;DHT22;21609;49.298;6.844;2024-01-06T03:37:06;16.80;53.10
35497;DHT22;21609;49.298;6.844;2024-01-06T03:39:32;16.80;53.10
35497;DHT22;21609;49.298;6.844;2024-01-06T03:41:57;16.80;53.10
35497;DHT22;21609;49.298;6.844;2024-01-06T03:44:23;16.80;53.10
35497;DHT22;21609;49.298;6.844;2024-01-06T03:46:48;16.80;53.10
35497;DHT22;21609;49.298;6.844;2024-01-06T03:49:14;16.80;53.10
35497;DHT22;21609;49.298;6.844;2024-01-06T03:51:39;16.80;53.20
35497;DHT22;21609;49.298;6.844;2024-01-06T03:54:05;16.70;53.10
35497;DHT22;21609;49.298;6.844;2024-01-06T03:56:30;16.70;53.20
35497;DHT22;21609;49.298;6.844;2024-01-06T03:58:56;16.80;53.20
35497;DHT22;21609;49.298;6.844;2024-01-06T04:01:21;16.70;53.10
35497;DHT22;21609;49.298;6.844;2024-01-06T04:03:47;16.80;53.20
35497;DHT22;21609;49.298;6.844;2024-01-06T04:06:12;16.70;53.20
35497;DHT22;21609;49.298;6.844;2024-01-06T04:08:39;16.70;53.20
35497;DHT22;21609;49.298;6.844;2024-01-06T04:11:06;16.70;53.20
35497;DHT22;21609;49.298;6.844;2024-01-06T04:13:31;16.70;53.20
35497;DHT22;21609;49.298;6.844;2024-01-06T04:15:57;16.70;53.20
35497;DHT22;21609;49.298;6.844;2024-01-06T04:18:22;16.70;53.20
35497;DHT22;21609;49.298;6.844;2024-01-06T04:20:48;16.60;53.20
35497;DHT22;21609;49.298;6.844;2024-01-06T04:23:13;16.70;53.20
35497;DHT22;21609;49.298;6.844;2024-01-06T04:25:39;16.60;53.20
35497;DHT22;21609;49.298;6.844;2024-01-06T04:28:05;16.60;53.20
35497;DHT22;21609;49.298;6.844;2024-01-06T04:30:30;16.60;53.20
35497;DHT22;21609;49.298;6.844;2024-01-06T04:32:56;16.60;53.20
35497;DHT22;21609;49.298;6.844;2024-01-06T04:35:23;16.60;53.20
35497;DHT22;21609;49.298;6.844;2024-01-06T04:37:49;16.60;53.20
35497;DHT22;21609;49.298;6.844;2024-01-06T04:40:15;16.60;53.20
35497;DHT22;21609;49.298;6.844;2024-01-06T04:42:40;16.60;53.20
35497;DHT22;21609;49.298;6.844;2024-01-06T04:45:06;16.60;53.30
35497;DHT22;21609;49.298;6.844;2024-01-06T04:47:32;16.50;53.40
35497;DHT22;21609;49.298;6.844;2024-01-06T04:49:58;16.60;53.30
35497;DHT22;21609;49.298;6.844;2024-01-06T04:52:23;16.60;53.30
35497;DHT22;21609;49.298;6.844;2024-01-06T04:54:49;16.50;53.20
35497;DHT22;21609;49.298;6.844;2024-01-06T04:57:14;16.50;53.20
35497;DHT22;21609;49.298;6.844;2024-01-06T04:59:41;16.50;53.30
35497;DHT22;21609;49.298;6.844;2024-01-06T05:02:07;16.50;53.30
35497;DHT22;21609;49.298;6.844;2024-01-06T05:04:32;16.50;53.30
35497;DHT22;21609;49.298;6.844;2024-01-06T05:06:58;16.50;53.30
35497;DHT22;21609;49.298;6.844;2024-01-06T05:09:25;16.50;53.30
35497;DHT22;21609;49.298;6.844;2024-01-06T05:11:50;16.50;53.90
35497;DHT22;21609;49.298;6.844;2024-01-06T05:14:16;16.50;53.40
35497;DHT22;21609;49.298;6.844;2024-01-06T05:16:42;16.50;53.40
35497;DHT22;21609;49.298;6.844;2024-01-06T05:19:08;16.50;53.40
35497;DHT22;21609;49.298;6.844;2024-01-06T05:21:34;16.50;53.30
35497;DHT22;21609;49.298;6.844;2024-01-06T05:24:00;16.50;53.40
35497;DHT22;21609;49.298;6.844;2024-01-06T05:26:25;16.40;53.30
35497;DHT22;21609;49.298;6.844;2024-01-06T05:28:52;16.40;53.90
35497;DHT22;21609;49.298;6.844;2024-01-06T05:31:17;16.40;53.40
35497;DHT22;21609;49.298;6.844;2024-01-06T05:33:43;16.40;53.40
35497;DHT22;21609;49.298;6.844;2024-01-06T05:36:08;16.40;53.40
35497;DHT22;21609;49.298;6.844;2024-01-06T05:38:34;16.40;53.40
35497;DHT22;21609;49.298;6.844;2024-01-06T05:40:59;16.40;53.40
35497;DHT22;21609;49.298;6.844;2024-01-06T05:43:25;16.40;53.40
35497;DHT22;21609;49.298;6.844;2024-01-06T05:45:51;16.40;53.40
35497;DHT22;21609;49.298;6.844;2024-01-06T05:48:16;16.40;53.40
35497;DHT22;21609;49.298;6.844;2024-01-06T05:50:42;16.40;53.40
35497;DHT22;21609;49.298;6.844;2024-01-06T05:53:08;16.40;53.40
35497;DHT22;21609;49.298;6.844;2024-01-06T05:55:34;16.40;53.40
35497;DHT22;21609;49.298;6.844;2024-01-06T05:58:00;16.40;53.40
35497;DHT22;21609;49.298;6.844;2024-01-06T06:00:26;16.40;53.60
35497;DHT22;21609;49.298;6.844;2024-01-06T06:02:51;16.40;53.50
35497;DHT22;21609;49.298;6.844;2024-01-06T06:05:17;16.30;54.00
35497;DHT22;21609;49.298;6.844;2024-01-06T06:07:42;16.30;53.50
35497;DHT22;21609;49.298;6.844;2024-01-06T06:10:10;16.30;53.50
35497;DHT22;21609;49.298;6.844;2024-01-06T06:12:36;16.30;53.50
35497;DHT22;21609;49.298;6.844;2024-01-06T06:15:03;16.30;53.50
35497;DHT22;21609;49.298;6.844;2024-01-06T06:17:30;16.30;53.50
35497;DHT22;21609;49.298;6.844;2024-01-06T06:19:56;16.30;53.50
35497;DHT22;21609;49.298;6.844;2024-01-06T06:22:22;16.30;53.50
35497;DHT22;21609;49.298;6.844;2024-01-06T06:24:48;16.30;53.50
35497;DHT22;21609;49.298;6.844;2024-01-06T06:27:14;16.30;53.50
35497;DHT22;21609;49.298;6.844;2024-01-06T06:29:39;16.20;53.50
35497;DHT22;21609;49.298;6.844;2024-01-06T06:32:05;16.20;53.50
35497;DHT22;21609;49.298;6.844;2024-01-06T06:34:30;16.20;53.60
35497;DHT22;21609;49.298;6.844;2024-01-06T06:36:56;16.20;53.50
35497;DHT22;21609;49.298;6.844;2024-01-06T06:39:21;16.20;53.50
35497;DHT22;21609;49.298;6.844;2024-01-06T06:41:47;16.20;53.50
35497;DHT22;21609;49.298;6.844;2024-01-06T06:44:12;16.20;53.60
35497;DHT22;21609;49.298;6.844;2024-01-06T06:46:38;16.20;53.60
35497;DHT22;21609;49.298;6.844;2024-01-06T06:49:04;16.20;53.50
35497;DHT22;21609;49.298;6.844;2024-01-06T06:51:30;16.20;53.60
35497;DHT22;21609;49.298;6.844;2024-01-06T06:53:56;16.20;53.60
35497;DHT22;21609;49.298;6.844;2024-01-06T06:56:22;16.20;53.60
35497;DHT22;21609;49.298;6.844;2024-01-06T06:58:47;16.10;53.60
35497;DHT22;21609;49.298;6.844;2024-01-06T07:01:16;16.20;53.70
35497;DHT22;21609;49.298;6.844;2024-01-06T07:03:42;16.20;53.70
35497;DHT22;21609;49.298;6.844;2024-01-06T07:06:07;16.20;53.60
35497;DHT22;21609;49.298;6.844;2024-01-06T07:08:33;16.10;54.40
35497;DHT22;21609;49.298;6.844;2024-01-06T07:10:58;16.10;53.80
35497;DHT22;21609;49.298;6.844;2024-01-06T07:13:24;16.10;53.70
35497;DHT22;21609;49.298;6.844;2024-01-06T07:15:50;16.00;53.60
35497;DHT22;21609;49.298;6.844;2024-01-06T07:18:15;16.00;53.90
35497;DHT22;21609;49.298;6.844;2024-01-06T07:20:41;16.00;54.10
35497;DHT22;21609;49.298;6.844;2024-01-06T07:23:06;16.10;53.80
35497;DHT22;21609;49.298;6.844;2024-01-06T07:25:32;16.10;54.20
35497;DHT22;21609;49.298;6.844;2024-01-06T07:27:57;16.00;53.80
35497;DHT22;21609;49.298;6.844;2024-01-06T07:30:23;16.10;54.20
35497;DHT22;21609;49.298;6.844;2024-01-06T07:32:48;16.10;54.10
35497;DHT22;21609;49.298;6.844;2024-01-06T07:35:15;16.10;54.10
35497;DHT22;21609;49.298;6.844;2024-01-06T07:37:41;16.10;53.80
35497;DHT22;21609;49.298;6.844;2024-01-06T07:40:07;16.10;53.80
35497;DHT22;21609;49.298;6.844;2024-01-06T07:42:33;16.00;53.70
35497;DHT22;21609;49.298;6.844;2024-01-06T07:44:59;16.00;53.80
35497;DHT22;21609;49.298;6.844;2024-01-06T07:47:24;16.00;53.80
35497;DHT22;21609;49.298;6.844;2024-01-06T07:49:50;16.00;53.80
35497;DHT22;21609;49.298;6.844;2024-01-06T07:52:16;16.00;53.80
35497;DHT22;21609;49.298;6.844;2024-01-06T07:54:42;16.00;53.80
35497;DHT22;21609;49.298;6.844;2024-01-06T07:57:07;16.00;53.90
35497;DHT22;21609;49.298;6.844;2024-01-06T07:59:33;16.00;53.80
35497;DHT22;21609;49.298;6.844;2024-01-06T08:01:58;16.00;53.80
35497;DHT22;21609;49.298;6.844;2024-01-06T08:04:24;16.00;53.80
35497;DHT22;21609;49.298;6.844;2024-01-06T08:06:50;16.00;53.80
35497;DHT22;21609;49.298;6.844;2024-01-06T08:09:15;16.00;53.90
35497;DHT22;21609;49.298;6.844;2024-01-06T08:11:41;16.00;53.90
35497;DHT22;21609;49.298;6.844;2024-01-06T08:14:08;15.90;53.80
35497;DHT22;21609;49.298;6.844;2024-01-06T08:16:33;15.90;53.80
35497;DHT22;21609;49.298;6.844;2024-01-06T08:18:59;15.90;53.80
35497;DHT22;21609;49.298;6.844;2024-01-06T08:21:25;15.90;54.10
35497;DHT22;21609;49.298;6.844;2024-01-06T08:23:50;16.10;54.40
35497;DHT22;21609;49.298;6.844;2024-01-06T08:26:16;16.30;53.90
35497;DHT22;21609;49.298;6.844;2024-01-06T08:28:41;16.50;53.60
35497;DHT22;21609;49.298;6.844;2024-01-06T08:31:07;16.60;53.40
35497;DHT22;21609;49.298;6.844;2024-01-06T08:33:33;16.80;53.30
35497;DHT22;21609;49.298;6.844;2024-01-06T08:35:58;17.00;53.00
35497;DHT22;21609;49.298;6.844;2024-01-06T08:38:24;17.10;52.90
35497;DHT22;21609;49.298;6.844;2024-01-06T08:40:49;17.10;52.70
35497;DHT22;21609;49.298;6.844;2024-01-06T08:43:16;17.10;52.80
35497;DHT22;21609;49.298;6.844;2024-01-06T08:45:41;17.20;52.70
35497;DHT22;21609;49.298;6.844;2024-01-06T08:48:07;17.30;52.60
35497;DHT22;21609;49.298;6.844;2024-01-06T08:50:33;17.30;52.40
35497;DHT22;21609;49.298;6.844;2024-01-06T08:52:58;17.40;52.40
35497;DHT22;21609;49.298;6.844;2024-01-06T08:55:24;17.40;52.30
35497;DHT22;21609;49.298;6.844;2024-01-06T08:57:49;17.50;52.40
35497;DHT22;21609;49.298;6.844;2024-01-06T09:00:15;17.50;52.20
35497;DHT22;21609;49.298;6.844;2024-01-06T09:02:41;17.50;52.30
35497;DHT22;21609;49.298;6.844;2024-01-06T09:05:07;17.60;52.40
35497;DHT22;21609;49.298;6.844;2024-01-06T09:07:32;17.60;52.40
35497;DHT22;21609;49.298;6.844;2024-01-06T09:09:58;17.60;52.40
35497;DHT22;21609;49.298;6.844;2024-01-06T09:12:24;17.60;52.50
35497;DHT22;21609;49.298;6.844;2024-01-06T09:14:50;17.60;52.50
35497;DHT22;21609;49.298;6.844;2024-01-06T09:17:15;17.60;52.70
35497;DHT22;21609;49.298;6.844;2024-01-06T09:19:41;17.60;52.70
35497;DHT22;21609;49.298;6.844;2024-01-06T09:22:07;17.60;52.60
35497;DHT22;21609;49.298;6.844;2024-01-06T09:24:32;17.60;52.70
35497;DHT22;21609;49.298;6.844;2024-01-06T09:26:59;17.70;53.30
35497;DHT22;21609;49.298;6.844;2024-01-06T09:29:24;17.70;52.50
35497;DHT22;21609;49.298;6.844;2024-01-06T09:31:50;17.80;52.50
35497;DHT22;21609;49.298;6.844;2024-01-06T09:34:16;17.80;52.60
35497;DHT22;21609;49.298;6.844;2024-01-06T09:36:41;17.80;52.90
35497;DHT22;21609;49.298;6.844;2024-01-06T09:39:07;17.80;52.80
35497;DHT22;21609;49.298;6.844;2024-01-06T09:41:33;17.80;52.80
35497;DHT22;21609;49.298;6.844;2024-01-06T09:43:59;17.90;52.70
35497;DHT22;21609;49.298;6.844;2024-01-06T09:46:28;17.90;52.80
35497;DHT22;21609;49.298;6.844;2024-01-06T09:48:57;17.90;52.80
35497;DHT22;21609;49.298;6.844;2024-01-06T09:51:24;17.90;52.70
35497;DHT22;21609;49.298;6.844;2024-01-06T09:53:59;18.00;52.70
35497;DHT22;21609;49.298;6.844;2024-01-06T09:56:26;18.00;52.70
35497;DHT22;21609;49.298;6.844;2024-01-06T09:58:52;18.00;52.80
35497;DHT22;21609;49.298;6.844;2024-01-06T10:01:18;18.00;52.70
35497;DHT22;21609;49.298;6.844;2024-01-06T10:03:44;18.00;52.80
35497;DHT22;21609;49.298;6.844;2024-01-06T10:06:16;18.00;52.80
35497;DHT22;21609;49.298;6.844;2024-01-06T10:08:48;18.00;52.80
35497;DHT22;21609;49.298;6.844;2024-01-06T10:11:14;18.00;52.80
35497;DHT22;21609;49.298;6.844;2024-01-06T10:13:40;18.00;52.90
35497;DHT22;21609;49.298;6.844;2024-01-06T10:16:06;18.00;52.60
35497;DHT22;21609;49.298;6.844;2024-01-06T10:18:32;18.10;52.90
35497;DHT22;21609;49.298;6.844;2024-01-06T10:20:58;18.00;52.70
35497;DHT22;21609;49.298;6.844;2024-01-06T10:23:26;18.10;52.60
35497;DHT22;21609;49.298;6.844;2024-01-06T10:25:55;18.20;52.50
35497;DHT22;21609;49.298;6.844;2024-01-06T10:28:22;18.10;52.50
35497;DHT22;21609;49.298;6.844;2024-01-06T10:30:55;18.20;52.30
35497;DHT22;21609;49.298;6.844;2024-01-06T10:33:21;18.20;52.30
35497;DHT22;21609;49.298;6.844;2024-01-06T10:35:48;18.10;52.60
35497;DHT22;21609;49.298;6.844;2024-01-06T10:38:14;18.10;52.60
35497;DHT22;21609;49.298;6.844;2024-01-06T10:41:04;18.10;52.70
35497;DHT22;21609;49.298;6.844;2024-01-06T10:43:33;18.10;52.50
35497;DHT22;21609;49.298;6.844;2024-01-06T10:46:07;18.10;52.60
35497;DHT22;21609;49.298;6.844;2024-01-06T10:48:36;18.10;52.80
35497;DHT22;21609;49.298;6.844;2024-01-06T10:51:04;18.10;53.40
35497;DHT22;21609;49.298;6.844;2024-01-06T10:53:33;18.00;52.80
35497;DHT22;21609;49.298;6.844;2024-01-06T10:55:59;18.10;52.80
35497;DHT22;21609;49.298;6.844;2024-01-06T10:58:26;18.10;52.50
35497;DHT22;21609;49.298;6.844;2024-01-06T11:00:51;18.10;52.80
35497;DHT22;21609;49.298;6.844;2024-01-06T11:03:17;18.10;52.60
35497;DHT22;21609;49.298;6.844;2024-01-06T11:05:43;18.10;52.50
35497;DHT22;21609;49.298;6.844;2024-01-06T11:08:10;18.10;52.70
35497;DHT22;21609;49.298;6.844;2024-01-06T11:10:36;18.10;52.60
35497;DHT22;21609;49.298;6.844;2024-01-06T11:13:12;18.10;52.70
35497;DHT22;21609;49.298;6.844;2024-01-06T11:15:40;18.20;52.60
35497;DHT22;21609;49.298;6.844;2024-01-06T11:18:06;18.20;52.60
35497;DHT22;21609;49.298;6.844;2024-01-06T11:20:31;18.30;52.40
35497;DHT22;21609;49.298;6.844;2024-01-06T11:23:17;18.30;52.40
35497;DHT22;21609;49.298;6.844;2024-01-06T11:25:45;18.30;52.30
35497;DHT22;21609;49.298;6.844;2024-01-06T11:28:11;18.30;52.40
35497;DHT22;21609;49.298;6.844;2024-01-06T11:30:38;18.40;52.40
35497;DHT22;21609;49.298;6.844;2024-01-06T11:33:04;18.40;52.30
35497;DHT22;21609;49.298;6.844;2024-01-06T11:35:30;18.40;52.40
35497;DHT22;21609;49.298;6.844;2024-01-06T11:38:07;18.40;52.10
35497;DHT22;21609;49.298;6.844;2024-01-06T11:40:36;18.50;52.10
35497;DHT22;21609;49.298;6.844;2024-01-06T11:43:11;18.50;52.40
35497;DHT22;21609;49.298;6.844;2024-01-06T11:45:41;18.50;52.00
35497;DHT22;21609;49.298;6.844;2024-01-06T11:48:09;18.50;52.20
35497;DHT22;21609;49.298;6.844;2024-01-06T11:50:37;18.50;52.10
35497;DHT22;21609;49.298;6.844;2024-01-06T11:53:04;18.60;52.00
35497;DHT22;21609;49.298;6.844;2024-01-06T11:55:30;18.50;52.10
35497;DHT22;21609;49.298;6.844;2024-01-06T11:57:58;18.60;52.10
35497;DHT22;21609;49.298;6.844;2024-01-06T12:00:28;18.50;52.00
35497;DHT22;21609;49.298;6.844;2024-01-06T12:02:58;18.60;52.00
35497;DHT22;21609;49.298;6.844;2024-01-06T12:05:24;18.60;51.90
35497;DHT22;21609;49.298;6.844;2024-01-06T12:08:02;18.60;52.00
35497;DHT22;21609;49.298;6.844;2024-01-06T12:10:30;18.60;52.00
35497;DHT22;21609;49.298;6.844;2024-01-06T12:13:01;18.50;52.10
35497;DHT22;21609;49.298;6.844;2024-01-06T12:15:31;18.50;51.90
35497;DHT22;21609;49.298;6.844;2024-01-06T12:17:57;18.60;52.00
35497;DHT22;21609;49.298;6.844;2024-01-06T12:20:24;18.60;51.80
35497;DHT22;21609;49.298;6.844;2024-01-06T12:22:53;18.60;51.70
35497;DHT22;21609;49.298;6.844;2024-01-06T12:25:21;18.70;51.90
35497;DHT22;21609;49.298;6.844;2024-01-06T12:27:48;18.70;51.90
35497;DHT22;21609;49.298;6.844;2024-01-06T12:30:15;18.70;51.90
35497;DHT22;21609;49.298;6.844;2024-01-06T12:32:45;18.60;52.00
35497;DHT22;21609;49.298;6.844;2024-01-06T12:35:11;18.60;52.00
35497;DHT22;21609;49.298;6.844;2024-01-06T12:37:37;18.60;51.90
35497;DHT22;21609;49.298;6.844;2024-01-06T12:40:03;18.60;51.90
35497;DHT22;21609;49.298;6.844;2024-01-06T12:42:29;18.60;52.20
35497;DHT22;21609;49.298;6.844;2024-01-06T12:44:55;18.60;51.80
35497;DHT22;21609;49.298;6.844;2024-01-06T12:47:20;18.60;52.10
35497;DHT22;21609;49.298;6.844;2024-01-06T12:49:46;18.60;51.90
35497;DHT22;21609;49.298;6.844;2024-01-06T12:52:11;18.40;51.70
35497;DHT22;21609;49.298;6.844;2024-01-06T12:54:38;18.50;51.90
35497;DHT22;21609;49.298;6.844;2024-01-06T12:57:04;18.50;51.90
35497;DHT22;21609;49.298;6.844;2024-01-06T12:59:30;18.50;51.80
35497;DHT22;21609;49.298;6.844;2024-01-06T13:01:56;18.50;51.70
35497;DHT22;21609;49.298;6.844;2024-01-06T13:04:22;18.60;51.80
35497;DHT22;21609;49.298;6.844;2024-01-06T13:06:47;18.60;51.70
35497;DHT22;21609;49.298;6.844;2024-01-06T13:09:15;18.60;51.80
35497;DHT22;21609;49.298;6.844;2024-01-06T13:11:41;18.50;51.80
35497;DHT22;21609;49.298;6.844;2024-01-06T13:14:07;18.60;52.00
35497;DHT22;21609;49.298;6.844;2024-01-06T13:16:33;18.50;51.80
35497;DHT22;21609;49.298;6.844;2024-01-06T13:18:59;18.60;52.00
35497;DHT22;21609;49.298;6.844;2024-01-06T13:21:25;18.60;51.80
35497;DHT22;21609;49.298;6.844;2024-01-06T13:23:51;18.60;51.90
35497;DHT22;21609;49.298;6.844;2024-01-06T13:26:16;18.60;51.80
35497;DHT22;21609;49.298;6.844;2024-01-06T13:28:42;18.70;51.60
35497;DHT22;21609;49.298;6.844;2024-01-06T13:31:08;18.70;51.60
35497;DHT22;21609;49.298;6.844;2024-01-06T13:33:35;18.70;51.50
35497;DHT22;21609;49.298;6.844;2024-01-06T13:36:00;18.80;51.70
35497;DHT22;21609;49.298;6.844;2024-01-06T13:38:26;18.80;51.60
35497;DHT22;21609;49.298;6.844;2024-01-06T13:40:52;18.80;51.50
35497;DHT22;21609;49.298;6.844;2024-01-06T13:43:18;18.80;51.50
35497;DHT22;21609;49.298;6.844;2024-01-06T13:45:43;18.80;51.80
35497;DHT22;21609;49.298;6.844;2024-01-06T13:48:13;18.80;51.50
35497;DHT22;21609;49.298;6.844;2024-01-06T13:50:39;18.80;51.40
35497;DHT22;21609;49.298;6.844;2024-01-06T13:53:05;18.80;51.50
35497;DHT22;21609;49.298;6.844;2024-01-06T13:55:32;18.90;51.40
35497;DHT22;21609;49.298;6.844;2024-01-06T13:57:59;18.90;51.40
35497;DHT22;21609;49.298;6.844;2024-01-06T14:00:24;18.90;51.40
35497;DHT22;21609;49.298;6.844;2024-01-06T14:02:51;18.90;51.20
35497;DHT22;21609;49.298;6.844;2024-01-06T14:05:17;19.00;51.30
35497;DHT22;21609;49.298;6.844;2024-01-06T14:07:44;19.00;50.90
35497;DHT22;21609;49.298;6.844;2024-01-06T14:10:14;19.00;50.90
35497;DHT22;21609;49.298;6.844;2024-01-06T14:12:40;19.00;50.90
35497;DHT22;21609;49.298;6.844;2024-01-06T14:15:07;19.00;50.80
35497;DHT22;21609;49.298;6.844;2024-01-06T14:17:33;19.00;50.80
35497;DHT22;21609;49.298;6.844;2024-01-06T14:19:58;19.10;50.80
35497;DHT22;21609;49.298;6.844;2024-01-06T14:22:25;19.00;50.70
35497;DHT22;21609;49.298;6.844;2024-01-06T14:24:51;19.10;50.80
35497;DHT22;21609;49.298;6.844;2024-01-06T14:27:17;19.10;50.70
35497;DHT22;21609;49.298;6.844;2024-01-06T14:29:42;19.10;50.60
35497;DHT22;21609;49.298;6.844;2024-01-06T14:32:08;19.10;50.50
35497;DHT22;21609;49.298;6.844;2024-01-06T14:34:34;19.20;50.50
35497;DHT22;21609;49.298;6.844;2024-01-06T14:37:00;19.10;50.40
35497;DHT22;21609;49.298;6.844;2024-01-06T14:39:25;19.10;50.40
35497;DHT22;21609;49.298;6.844;2024-01-06T14:41:51;19.10;50.70
35497;DHT22;21609;49.298;6.844;2024-01-06T14:44:17;19.10;50.70
35497;DHT22;21609;49.298;6.844;2024-01-06T14:46:45;19.10;50.70
35497;DHT22;21609;49.298;6.844;2024-01-06T14:49:11;19.10;50.60
35497;DHT22;21609;49.298;6.844;2024-01-06T14:51:37;19.00;50.80
35497;DHT22;21609;49.298;6.844;2024-01-06T14:54:02;18.80;51.00
35497;DHT22;21609;49.298;6.844;2024-01-06T14:56:28;18.80;51.00
35497;DHT22;21609;49.298;6.844;2024-01-06T14:58:55;18.80;51.40
35497;DHT22;21609;49.298;6.844;2024-01-06T15:01:21;18.80;51.40
35497;DHT22;21609;49.298;6.844;2024-01-06T15:03:47;18.80;51.30
35497;DHT22;21609;49.298;6.844;2024-01-06T15:06:12;18.80;51.40
35497;DHT22;21609;49.298;6.844;2024-01-06T15:08:38;18.80;51.40
35497;DHT22;21609;49.298;6.844;2024-01-06T15:11:04;18.70;51.40
35497;DHT22;21609;49.298;6.844;2024-01-06T15:13:29;18.70;51.50
35497;DHT22;21609;49.298;6.844;2024-01-06T15:15:56;18.70;51.30
35497;DHT22;21609;49.298;6.844;2024-01-06T15:18:22;18.80;51.40
35497;DHT22;21609;49.298;6.844;2024-01-06T15:20:48;18.80;51.30
35497;DHT22;21609;49.298;6.844;2024-01-06T15:23:14;18.80;51.30